createdAt,value
2018-02-15T00:03:59.586Z,90.05
2018-02-15T00:06:28.634Z,88.12
2018-02-15T00:08:57.706Z,84.70
2018-02-15T00:11:26.786Z,96.90
2018-02-15T00:13:55.806Z,84.18
2018-02-15T00:16:24.859Z,83.43
2018-02-15T00:18:53.901Z,80.30
2018-02-15T00:21:22.995Z,94.45
2018-02-15T00:23:52.048Z,88.78
2018-02-15T00:26:21.138Z,94.68
2018-02-15T00:28:50.191Z,85.38
2018-02-15T00:31:19.219Z,106.30
2018-02-15T00:33:48.283Z,88.00
2018-02-15T00:36:17.311Z,86.50
2018-02-15T00:38:46.342Z,110.37
2018-02-15T00:41:15.430Z,91.60
2018-02-15T00:43:44.450Z,99.37
2018-02-15T00:46:13.504Z,107.10
2018-02-15T00:48:43.291Z,95.93
2018-02-15T00:51:12.339Z,97.95
2018-02-15T00:53:42.177Z,94.90
2018-02-15T00:56:11.250Z,99.72
2018-02-15T00:58:40.274Z,101.45
2018-02-15T01:01:10.118Z,96.40
2018-02-15T01:03:39.143Z,96.60
2018-02-15T01:06:08.190Z,90.00
2018-02-15T01:08:37.243Z,104.47
2018-02-15T01:11:07.055Z,104.25
2018-02-15T01:13:36.850Z,97.12
2018-02-15T01:16:05.980Z,99.97
2018-02-15T01:18:36.506Z,103.47
2018-02-15T01:21:05.562Z,114.90
2018-02-15T01:23:34.623Z,103.80
2018-02-15T01:26:03.654Z,113.70
2018-02-15T01:28:32.771Z,112.90
2018-02-15T01:31:01.758Z,120.78
2018-02-15T01:33:30.842Z,122.85
2018-02-15T01:35:59.875Z,125.68
2018-02-15T01:38:28.926Z,131.60
2018-02-15T01:40:58.154Z,118.68
2018-02-15T01:43:27.212Z,122.72
2018-02-15T01:45:56.232Z,128.43
2018-02-15T01:48:26.046Z,115.85
2018-02-15T01:50:55.086Z,134.70
2018-02-15T01:53:24.939Z,118.15
2018-02-15T01:55:53.975Z,122.82
2018-02-15T01:58:23.004Z,124.57
2018-02-15T02:00:52.031Z,121.72
2018-02-15T02:03:21.824Z,116.07
2018-02-15T02:05:50.875Z,115.57
2018-02-15T02:08:20.676Z,113.75
2018-02-15T02:10:49.699Z,117.22
2018-02-15T02:13:19.550Z,108.90
2018-02-15T02:15:48.631Z,100.05
2018-02-15T02:18:18.422Z,94.45
2018-02-15T02:20:47.474Z,105.00
2018-02-15T02:23:17.271Z,100.90
2018-02-15T02:25:46.331Z,94.68
2018-02-15T02:28:15.354Z,99.15
2018-02-15T02:30:44.527Z,104.38
2018-02-15T02:33:14.323Z,91.35
2018-02-15T02:35:43.378Z,82.85
2018-02-15T02:38:12.451Z,89.00
2018-02-15T02:40:41.479Z,84.03
2018-02-15T02:43:11.263Z,96.35
2018-02-15T02:45:40.310Z,93.07
2018-02-15T02:48:09.407Z,104.95
2018-02-15T02:50:38.429Z,104.80
2018-02-15T02:53:08.245Z,104.28
2018-02-15T02:55:37.293Z,97.30
2018-02-15T02:58:06.347Z,108.45
2018-02-15T03:00:36.163Z,115.57
2018-02-15T03:03:05.242Z,98.20
2018-02-15T03:05:34.259Z,107.53
2018-02-15T03:08:03.352Z,100.75
2018-02-15T03:10:32.478Z,111.45
2018-02-15T03:13:01.535Z,98.25
2018-02-15T03:15:30.558Z,97.68
2018-02-15T03:18:00.346Z,105.90
2018-02-15T03:20:29.643Z,107.47
2018-02-15T03:22:58.654Z,101.85
2018-02-15T03:25:27.738Z,111.82
2018-02-15T03:27:56.767Z,93.37
2018-02-15T03:30:25.824Z,106.60
2018-02-15T03:32:54.859Z,107.00
2018-02-15T03:35:24.694Z,106.28
2018-02-15T03:37:53.717Z,97.70
2018-02-15T03:40:22.782Z,100.70
2018-02-15T03:42:51.809Z,92.88
2018-02-15T03:45:21.669Z,109.30
2018-02-15T03:47:50.694Z,100.97
2018-02-15T03:50:19.789Z,105.37
2018-02-15T03:52:48.814Z,113.55
2018-02-15T03:55:17.842Z,113.55
2018-02-15T03:57:46.894Z,122.37
2018-02-15T04:00:15.931Z,108.80
2018-02-15T04:02:45.071Z,100.80
2018-02-15T04:05:14.110Z,110.65
2018-02-15T04:07:43.951Z,119.80
2018-02-15T04:10:12.975Z,98.15
2018-02-15T04:12:42.027Z,117.93
2018-02-15T04:15:11.051Z,107.90
2018-02-15T04:17:40.952Z,123.15
2018-02-15T04:20:09.935Z,112.93
2018-02-15T04:22:39.024Z,105.00
2018-02-15T04:25:08.057Z,101.53
2018-02-15T04:27:37.111Z,110.10
2018-02-15T04:30:06.902Z,125.40
2018-02-15T04:32:35.997Z,110.37
2018-02-15T04:35:05.030Z,98.10
2018-02-15T04:37:34.054Z,96.93
2018-02-15T04:40:03.139Z,103.15
2018-02-15T04:42:32.166Z,96.05
2018-02-15T04:45:01.210Z,101.35
2018-02-15T04:47:30.238Z,89.62
2018-02-15T04:49:59.315Z,90.62
2018-02-15T04:52:29.112Z,101.05
2018-02-15T04:54:58.154Z,89.55
2018-02-15T04:57:27.950Z,82.18
2018-02-15T04:59:57.051Z,98.90
2018-02-15T05:02:26.082Z,88.80
2018-02-15T05:04:55.100Z,81.20
2018-02-15T05:07:24.153Z,82.60
2018-02-15T05:09:53.170Z,85.65
2018-02-15T05:12:22.227Z,87.50
2018-02-15T05:14:52.023Z,78.78
2018-02-15T05:17:21.154Z,85.10
2018-02-15T05:19:50.193Z,83.75
2018-02-15T05:22:19.994Z,77.93
2018-02-15T05:24:49.015Z,82.00
2018-02-15T05:27:18.826Z,79.43
2018-02-15T05:29:47.846Z,81.78
2018-02-15T05:32:17.689Z,85.03
2018-02-15T05:34:47.479Z,77.05
2018-02-15T05:37:16.622Z,75.82
2018-02-15T05:39:45.607Z,78.15
2018-02-15T05:42:14.660Z,80.20
2018-02-15T05:44:43.705Z,70.37
2018-02-15T05:47:12.786Z,90.05
2018-02-15T05:49:41.866Z,80.20
2018-02-15T05:52:11.668Z,80.62
2018-02-15T05:54:40.754Z,93.25
2018-02-15T05:57:09.786Z,84.25
2018-02-15T05:59:38.838Z,81.10
2018-02-15T06:02:07.858Z,72.05
2018-02-15T06:04:36.934Z,77.85
2018-02-15T06:07:06.757Z,78.65
2018-02-15T06:12:10.995Z,85.62
2018-02-15T06:14:40.111Z,74.10
2018-02-15T06:17:09.157Z,85.95
2018-02-15T06:19:38.974Z,77.80
2018-02-15T06:22:08.019Z,78.12
2018-02-15T06:24:37.071Z,84.30
2018-02-15T06:27:06.135Z,84.72
2018-02-15T06:29:35.187Z,83.28
2018-02-15T06:32:04.295Z,82.80
2018-02-15T06:34:33.358Z,77.78
2018-02-15T06:37:02.447Z,73.57
2018-02-15T06:39:31.509Z,93.10
2018-02-15T06:42:00.604Z,79.50
2018-02-15T06:44:29.651Z,87.72
2018-02-15T06:46:58.731Z,77.68
2018-02-15T06:49:27.780Z,76.93
2018-02-15T06:51:56.925Z,76.87
2018-02-15T06:54:25.996Z,82.40
2018-02-15T06:56:55.038Z,86.03
2018-02-15T06:59:24.115Z,82.57
2018-02-15T07:01:53.163Z,85.90
2018-02-15T07:04:22.231Z,89.40
2018-02-15T07:06:51.284Z,80.07
2018-02-15T07:09:20.388Z,76.15
2018-02-15T07:11:49.443Z,69.50
2018-02-15T07:14:18.515Z,80.05
2018-02-15T07:16:47.595Z,82.43
2018-02-15T07:19:17.479Z,76.87
2018-02-15T07:21:46.555Z,78.87
2018-02-15T07:24:15.635Z,84.30
2018-02-15T07:26:44.704Z,76.65
2018-02-15T07:29:13.823Z,69.70
2018-02-15T07:31:42.871Z,72.85
2018-02-15T07:34:12.747Z,77.45
2018-02-15T07:36:41.818Z,84.50
2018-02-15T07:39:11.679Z,74.62
2018-02-15T07:41:42.571Z,81.05
2018-02-15T07:44:12.442Z,78.10
2018-02-15T07:46:41.652Z,76.32
2018-02-15T07:49:10.693Z,74.93
2018-02-15T07:51:39.775Z,74.78
2018-02-15T07:54:08.903Z,82.03
2018-02-15T07:56:38.012Z,78.00
2018-02-15T07:59:07.063Z,70.07
2018-02-15T08:01:36.127Z,66.80
2018-02-15T08:04:05.261Z,73.53
2018-02-15T08:06:34.319Z,90.78
2018-02-15T08:09:04.160Z,74.00
2018-02-15T08:11:33.213Z,80.20
2018-02-15T08:14:02.284Z,84.07
2018-02-15T08:16:31.383Z,77.85
2018-02-15T08:19:00.482Z,81.75
2018-02-15T08:21:29.812Z,78.57
2018-02-15T08:23:58.860Z,69.50
2018-02-15T08:26:27.923Z,81.15
2018-02-15T08:28:56.993Z,75.18
2018-02-15T08:31:26.071Z,74.20
2018-02-15T08:33:55.114Z,81.85
2018-02-15T08:36:24.159Z,77.95
2018-02-15T08:38:54.019Z,82.62
2018-02-15T08:41:23.052Z,81.18
2018-02-15T08:43:52.128Z,75.32
2018-02-15T08:46:21.187Z,72.05
2018-02-15T08:48:50.227Z,72.18
2018-02-15T08:51:19.312Z,69.90
2018-02-15T08:53:48.351Z,73.78
2018-02-15T08:56:17.447Z,55.67
2018-02-15T08:58:47.244Z,65.95
2018-02-15T09:01:16.308Z,74.22
2018-02-15T09:03:45.391Z,73.15
2018-02-15T09:06:15.215Z,70.72
2018-02-15T09:08:45.047Z,65.80
2018-02-15T09:11:14.852Z,70.20
2018-02-15T09:13:43.887Z,73.28
2018-02-15T09:16:13.719Z,63.90
2018-02-15T09:18:43.515Z,60.90
2018-02-15T09:21:12.559Z,71.57
2018-02-15T09:23:41.595Z,56.53
2018-02-15T09:26:10.672Z,54.72
2018-02-15T09:28:40.487Z,52.38
2018-02-15T09:31:10.383Z,61.13
2018-02-15T09:33:39.424Z,61.05
2018-02-15T09:36:09.227Z,54.28
2018-02-15T09:38:38.275Z,55.83
2018-02-15T09:41:08.076Z,56.03
2018-02-15T09:43:37.142Z,48.65
2018-02-15T09:46:06.226Z,57.28
2018-02-15T09:48:36.115Z,56.83
2018-02-15T09:51:05.244Z,61.67
2018-02-15T09:53:35.087Z,52.15
2018-02-15T09:56:04.136Z,61.88
2018-02-15T09:58:33.191Z,61.35
2018-02-15T10:01:03.318Z,53.63
2018-02-15T10:03:32.351Z,51.45
2018-02-15T10:06:01.487Z,52.08
2018-02-15T10:08:30.548Z,59.90
2018-02-15T10:10:59.623Z,47.35
2018-02-15T10:13:28.696Z,49.65
2018-02-15T10:15:57.751Z,56.78
2018-02-15T10:18:26.810Z,55.83
2018-02-15T10:20:56.655Z,50.60
2018-02-15T10:23:25.700Z,52.22
2018-02-15T10:25:54.806Z,48.90
2018-02-15T10:28:23.852Z,49.88
2018-02-15T10:30:52.887Z,53.58
2018-02-15T10:33:21.982Z,49.58
2018-02-15T10:35:51.780Z,53.78
2018-02-15T10:38:20.859Z,49.97
2018-02-15T10:40:49.920Z,55.00
2018-02-15T10:43:19.777Z,49.75
2018-02-15T10:45:48.906Z,49.80
2018-02-15T10:48:17.939Z,51.33
2018-02-15T10:50:47.032Z,45.00
2018-02-15T10:53:16.059Z,54.70
2018-02-15T10:55:45.126Z,48.45
2018-02-15T10:58:14.156Z,48.63
2018-02-15T11:00:48.996Z,48.05
2018-02-15T11:03:23.572Z,48.97
2018-02-15T11:05:52.663Z,49.70
2018-02-15T11:08:21.700Z,48.72
2018-02-15T11:10:50.771Z,54.55
2018-02-15T11:13:19.812Z,49.92
2018-02-15T11:15:49.612Z,51.50
2018-02-15T11:18:18.660Z,48.80
2018-02-15T11:20:48.468Z,50.05
2018-02-15T11:23:17.508Z,45.90
2018-02-15T11:25:47.309Z,53.08
2018-02-15T11:28:16.347Z,50.85
2018-02-15T11:30:46.176Z,54.65
2018-02-15T11:33:15.984Z,45.08
2018-02-15T11:35:45.028Z,54.58
2018-02-15T11:38:14.067Z,55.47
2018-02-15T11:40:43.095Z,53.55
2018-02-15T11:43:12.240Z,50.88
2018-02-15T11:45:42.045Z,56.65
2018-02-15T11:48:11.124Z,55.20
2018-02-15T11:50:40.160Z,51.10
2018-02-15T11:53:09.263Z,48.87
2018-02-15T11:55:38.298Z,58.13
2018-02-15T11:58:08.095Z,51.40
2018-02-15T12:00:37.159Z,51.17
2018-02-15T12:03:06.239Z,55.00
2018-02-15T12:05:36.098Z,55.60
2018-02-15T12:08:05.137Z,51.75
2018-02-15T12:10:34.235Z,51.10
2018-02-15T12:13:03.283Z,54.58
2018-02-15T12:15:33.115Z,52.92
2018-02-15T12:18:02.976Z,51.30
2018-02-15T12:20:32.715Z,63.42
2018-02-15T12:23:01.824Z,60.58
2018-02-15T12:25:30.880Z,52.08
2018-02-15T12:27:59.985Z,59.95
2018-02-15T12:30:29.784Z,55.35
2018-02-15T12:32:58.860Z,57.42
2018-02-15T12:35:27.896Z,62.33
2018-02-15T12:37:56.931Z,57.20
2018-02-15T12:40:25.972Z,60.65
2018-02-15T12:42:55.779Z,59.63
2018-02-15T12:45:24.952Z,59.30
2018-02-15T12:47:53.987Z,56.70
2018-02-15T12:50:23.071Z,52.72
2018-02-15T12:52:52.116Z,58.67
2018-02-15T12:55:21.229Z,67.80
2018-02-15T12:57:50.267Z,66.00
2018-02-15T13:00:19.396Z,59.85
2018-02-15T13:02:48.427Z,55.75
2018-02-15T13:05:17.471Z,67.75
2018-02-15T13:07:46.686Z,61.03
2018-02-15T13:10:15.736Z,61.80
2018-02-15T13:13:02.740Z,65.28
2018-02-15T13:15:50.516Z,62.03
2018-02-15T13:18:19.580Z,62.28
2018-02-15T13:20:48.615Z,61.80
2018-02-15T13:23:18.538Z,62.53
2018-02-15T13:25:48.336Z,62.90
2018-02-15T13:28:35.471Z,56.22
2018-02-15T13:31:04.515Z,55.75
2018-02-15T13:33:34.339Z,61.05
2018-02-15T13:36:03.401Z,65.87
2018-02-15T13:38:32.554Z,60.00
2018-02-15T13:41:02.355Z,64.65
2018-02-15T13:43:32.928Z,68.65
2018-02-15T13:46:02.728Z,55.20
2018-02-15T13:48:31.801Z,65.10
2018-02-15T13:51:00.837Z,59.15
2018-02-15T13:53:29.934Z,76.75
2018-02-15T13:55:58.972Z,65.05
2018-02-15T13:58:28.011Z,67.65
2018-02-15T14:00:57.115Z,65.28
2018-02-15T14:03:26.928Z,66.85
2018-02-15T14:05:56.728Z,63.45
2018-02-15T14:08:25.768Z,74.03
2018-02-15T14:10:55.619Z,63.47
2018-02-15T14:13:24.656Z,60.20
2018-02-15T14:15:53.747Z,52.85
2018-02-15T14:18:22.782Z,64.75
2018-02-15T14:20:51.854Z,64.97
2018-02-15T14:23:20.883Z,59.33
2018-02-15T14:25:49.967Z,69.90
2018-02-15T14:28:19.008Z,63.53
2018-02-15T14:30:48.100Z,66.25
2018-02-15T14:33:17.200Z,60.45
2018-02-15T14:35:46.270Z,64.62
2018-02-15T14:38:15.351Z,66.40
2018-02-15T14:40:44.463Z,62.05
2018-02-15T14:43:13.483Z,73.03
2018-02-15T14:45:42.517Z,75.05
2018-02-15T14:48:11.607Z,70.30
2018-02-15T14:50:40.639Z,65.97
2018-02-15T14:53:09.735Z,68.87
2018-02-15T14:55:38.783Z,69.28
2018-02-15T14:58:08.631Z,65.60
2018-02-15T15:00:37.660Z,67.32
2018-02-15T15:03:06.723Z,74.32
2018-02-15T15:05:35.830Z,67.12
2018-02-15T15:08:05.627Z,75.18
2018-02-15T15:10:35.504Z,72.30
2018-02-15T15:13:04.536Z,63.03
2018-02-15T15:15:33.608Z,70.57
2018-02-15T15:18:03.415Z,61.65
2018-02-15T15:20:32.449Z,56.83
2018-02-15T15:23:01.487Z,68.03
2018-02-15T15:25:30.521Z,72.95
2018-02-15T15:27:59.615Z,68.53
2018-02-15T15:30:28.673Z,57.05
2018-02-15T15:32:58.503Z,65.60
2018-02-15T15:35:28.327Z,59.10
2018-02-15T15:37:58.151Z,60.55
2018-02-15T15:40:27.959Z,61.60
2018-02-15T15:42:57.019Z,55.55
2018-02-15T15:45:26.059Z,58.15
2018-02-15T15:47:55.116Z,54.55
2018-02-15T15:50:24.919Z,54.20
2018-02-15T15:52:53.987Z,62.22
2018-02-15T15:55:23.023Z,49.97
2018-02-15T15:57:52.056Z,48.75
2018-02-15T16:00:21.886Z,48.83
2018-02-15T16:02:50.938Z,46.97
2018-02-15T16:05:19.996Z,46.55
2018-02-15T16:07:49.032Z,51.00
2018-02-15T16:10:18.117Z,49.72
2018-02-15T16:12:47.936Z,47.15
2018-02-15T16:15:16.971Z,42.22
2018-02-15T16:17:46.772Z,45.12
2018-02-15T16:20:15.859Z,44.55
2018-02-15T16:22:45.679Z,50.80
2018-02-15T16:25:14.731Z,44.70
2018-02-15T16:27:44.618Z,42.40
2018-02-15T16:30:13.690Z,45.10
2018-02-15T16:32:42.724Z,43.15
2018-02-15T16:35:11.754Z,44.78
2018-02-15T16:37:40.855Z,42.78
2018-02-15T16:40:09.890Z,44.08
2018-02-15T16:42:38.995Z,44.88
2018-02-15T16:45:08.070Z,36.20
2018-02-15T16:47:37.132Z,43.17
2018-02-15T16:50:06.187Z,48.60
2018-02-15T16:52:35.230Z,41.42
2018-02-15T16:55:04.348Z,45.40
2018-02-15T16:57:33.392Z,48.20
2018-02-15T17:00:02.485Z,45.30
2018-02-15T17:02:32.283Z,40.65
2018-02-15T17:05:01.361Z,46.67
2018-02-15T17:07:30.400Z,49.22
2018-02-15T17:09:59.445Z,45.30
2018-02-15T17:12:29.329Z,41.40
2018-02-15T17:14:58.392Z,42.60
2018-02-15T17:17:28.244Z,51.10
2018-02-15T17:19:57.276Z,40.03
2018-02-15T17:22:26.351Z,42.58
2018-02-15T17:24:55.393Z,41.33
2018-02-15T17:27:24.432Z,42.97
2018-02-15T17:29:53.560Z,43.22
2018-02-15T17:32:23.399Z,37.63
2018-02-15T17:34:52.432Z,42.67
2018-02-15T17:37:21.472Z,40.88
2018-02-15T17:39:50.531Z,36.55
2018-02-15T17:42:19.607Z,33.97
2018-02-15T17:44:48.669Z,44.70
2018-02-15T17:47:17.720Z,34.60
2018-02-15T17:49:46.775Z,38.03
2018-02-15T17:52:15.823Z,38.58
2018-02-15T17:54:44.904Z,33.05
2018-02-15T17:57:13.957Z,35.78
2018-02-15T17:59:43.036Z,34.85
2018-02-15T18:02:12.104Z,34.20
2018-02-15T18:04:41.152Z,32.17
2018-02-15T18:07:10.300Z,32.38
2018-02-15T18:09:39.342Z,39.35
2018-02-15T18:12:08.450Z,35.38
2018-02-15T18:14:38.244Z,35.90
2018-02-15T18:17:07.275Z,37.97
2018-02-15T18:19:37.083Z,38.88
2018-02-15T18:22:06.177Z,36.83
2018-02-15T18:24:35.208Z,35.22
2018-02-15T18:27:05.024Z,35.58
2018-02-15T18:29:34.116Z,37.08
2018-02-15T18:32:03.240Z,37.92
2018-02-15T18:34:32.299Z,31.73
2018-02-15T18:37:01.336Z,34.17
2018-02-15T18:39:30.468Z,32.58
2018-02-15T18:41:59.515Z,35.20
2018-02-15T18:44:28.552Z,34.22
2018-02-15T18:46:57.634Z,37.25
2018-02-15T18:49:26.724Z,37.13
2018-02-15T18:51:56.541Z,34.25
2018-02-15T18:54:25.688Z,31.85
2018-02-15T18:56:54.724Z,31.25
2018-02-15T18:59:23.765Z,33.83
2018-02-15T19:01:52.860Z,34.95
2018-02-15T19:04:21.895Z,31.70
2018-02-15T19:06:51.723Z,31.48
2018-02-15T19:09:20.756Z,35.03
2018-02-15T19:11:51.027Z,34.50
2018-02-15T19:14:21.015Z,35.60
2018-02-15T19:16:50.816Z,36.35
2018-02-15T19:19:19.926Z,35.40
2018-02-15T19:21:49.755Z,33.05
2018-02-15T19:24:19.135Z,37.40
2018-02-15T19:26:48.200Z,40.55
2018-02-15T19:29:18.004Z,37.58
2018-02-15T19:31:47.039Z,37.08
2018-02-15T19:34:16.848Z,39.60
2018-02-15T19:36:45.944Z,41.17
2018-02-15T19:39:14.975Z,39.13
2018-02-15T19:41:44.039Z,35.25
2018-02-15T19:44:13.716Z,37.72
2018-02-15T19:46:43.583Z,38.63
2018-02-15T19:49:12.627Z,45.38
2018-02-15T19:51:41.696Z,40.08
2018-02-15T19:54:10.772Z,43.90
2018-02-15T19:56:39.863Z,42.90
2018-02-15T19:59:08.936Z,48.95
2018-02-15T20:01:38.027Z,45.03
2018-02-15T20:04:07.124Z,44.83
2018-02-15T20:06:36.928Z,47.55
2018-02-15T20:09:05.988Z,50.15
2018-02-15T20:11:35.027Z,45.50
2018-02-15T20:14:04.148Z,37.47
2018-02-15T20:16:33.240Z,42.62
2018-02-15T20:19:02.299Z,39.60
2018-02-15T20:21:31.374Z,41.03
2018-02-15T20:24:00.457Z,39.97
2018-02-15T20:26:35.107Z,36.13
2018-02-15T20:29:04.200Z,34.05
2018-02-15T20:31:33.239Z,38.50
2018-02-15T20:34:02.324Z,43.35
2018-02-15T20:36:31.387Z,39.45
2018-02-15T20:39:06.987Z,41.58
2018-02-15T20:41:36.049Z,41.00
2018-02-15T20:44:05.107Z,40.30
2018-02-15T20:46:34.280Z,36.88
2018-02-15T20:49:03.290Z,35.95
2018-02-15T20:51:38.856Z,39.08
2018-02-15T20:54:14.312Z,36.90
2018-02-15T20:56:44.150Z,40.63
2018-02-15T20:59:13.953Z,34.45
2018-02-15T21:01:43.090Z,38.40
2018-02-15T21:04:12.927Z,43.40
2018-02-15T21:06:42.120Z,43.38
2018-02-15T21:09:11.951Z,45.42
2018-02-15T21:11:41.753Z,41.35
2018-02-15T21:14:10.820Z,40.05
2018-02-15T21:16:39.865Z,38.67
2018-02-15T21:19:08.996Z,42.03
2018-02-15T21:21:38.840Z,39.22
2018-02-15T21:24:08.671Z,39.35
2018-02-15T21:26:38.476Z,37.15
2018-02-15T21:29:07.509Z,38.05
2018-02-15T21:31:36.559Z,39.45
2018-02-15T21:34:05.615Z,36.47
2018-02-15T21:36:45.367Z,47.22
2018-02-15T21:39:15.208Z,38.15
2018-02-15T21:41:45.045Z,41.30
2018-02-15T21:44:14.075Z,40.08
2018-02-15T21:46:43.169Z,39.67
2018-02-15T21:49:12.234Z,41.55
2018-02-15T21:51:41.272Z,41.83
2018-02-15T21:54:11.140Z,53.38
2018-02-15T21:56:40.176Z,44.67
2018-02-15T21:59:09.240Z,38.00
2018-02-15T22:01:38.276Z,45.17
2018-02-15T22:04:07.380Z,36.33
2018-02-15T22:06:36.416Z,42.25
2018-02-15T22:09:05.488Z,45.67
2018-02-15T22:11:34.645Z,46.88
2018-02-15T22:14:03.709Z,40.35
2018-02-15T22:16:32.764Z,38.47
2018-02-15T22:19:01.758Z,46.10
2018-02-15T22:21:30.825Z,43.05
2018-02-15T22:23:59.830Z,43.50
2018-02-15T22:26:28.872Z,45.00
2018-02-15T22:28:57.874Z,43.53
2018-02-15T22:31:26.959Z,39.60
2018-02-15T22:33:55.966Z,46.15
2018-02-15T22:36:25.007Z,44.33
2018-02-15T22:38:54.016Z,46.65
2018-02-15T22:41:23.058Z,40.58
2018-02-15T22:43:52.842Z,40.85
2018-02-15T22:46:21.894Z,37.47
2018-02-15T22:48:51.668Z,40.40
2018-02-15T22:51:20.788Z,38.25
2018-02-15T22:53:49.803Z,34.20
2018-02-15T22:56:18.818Z,41.33
2018-02-15T22:58:47.859Z,47.95
2018-02-15T23:01:17.638Z,45.58
2018-02-15T23:03:46.704Z,43.60
2018-02-15T23:06:15.773Z,40.15
2018-02-15T23:08:44.771Z,40.70
2018-02-15T23:11:13.815Z,44.17
2018-02-15T23:13:42.829Z,45.47
2018-02-15T23:16:12.660Z,43.13
2018-02-15T23:18:42.440Z,40.17
2018-02-15T23:21:11.503Z,37.67
2018-02-15T23:23:41.423Z,42.67
2018-02-15T23:26:10.523Z,42.15
2018-02-15T23:28:39.526Z,47.25
2018-02-15T23:31:08.539Z,42.60
2018-02-15T23:33:37.596Z,39.20
2018-02-15T23:36:06.630Z,43.42
2018-02-15T23:38:35.703Z,44.63
2018-02-15T23:41:04.719Z,44.35
2018-02-15T23:43:33.814Z,43.70
2018-02-15T23:46:02.878Z,43.30
2018-02-15T23:48:31.890Z,46.53
2018-02-15T23:51:00.957Z,43.83
2018-02-15T23:53:29.963Z,47.90
2018-02-15T23:55:59.007Z,37.90
2018-02-15T23:58:28.015Z,45.55
